Time;durP1;ratioP1;P1;durP2;ratioP2;P2;SDS_P1;SDS_P2;PMS_P1;PMS_P2;Temp;Humidity;BMP_temperature;BMP_pressure;BME280_temperature;BME280_humidity;BME280_pressure;Samples;Min_cycle;Max_cycle;Signal;HPM_P1;HPM_P2
2023/11/30 00:02:01;;;;;;;32.85;16.85;;;2.00;99.90;;;;;;4929873;28;91290;-76
2023/11/30 00:04:27;;;;;;;27.63;15.23;;;2.00;99.90;;;;;;4931973;28;88489;-76
2023/11/30 00:06:52;;;;;;;28.38;15.23;;;1.90;99.90;;;;;;4945584;28;88337;-76
2023/11/30 00:09:18;;;;;;;29.52;14.45;;;2.00;99.90;;;;;;4948632;28;88578;-76
2023/11/30 00:11:43;;;;;;;30.85;15.68;;;2.00;99.90;;;;;;4931517;28;91471;-76
2023/11/30 00:14:09;;;;;;;28.95;16.45;;;2.00;99.90;;;;;;4929758;28;87555;-76
2023/11/30 00:16:35;;;;;;;30.48;15.52;;;2.00;99.90;;;;;;4929461;28;89617;-76
2023/11/30 00:19:00;;;;;;;30.70;15.60;;;2.00;99.90;;;;;;4947320;28;88376;-76
2023/11/30 00:21:26;;;;;;;26.45;14.02;;;2.00;99.90;;;;;;4929179;28;91541;-76
2023/11/30 00:23:52;;;;;;;26.23;13.98;;;2.00;99.90;;;;;;4929863;28;87824;-76
2023/11/30 00:26:17;;;;;;;25.95;14.18;;;2.00;99.90;;;;;;4930848;28;90933;-77
2023/11/30 00:28:43;;;;;;;25.40;14.45;;;2.00;99.90;;;;;;4928840;28;92703;-77
2023/11/30 00:31:08;;;;;;;28.08;15.02;;;2.00;99.90;;;;;;4946763;28;89530;-76
2023/11/30 00:33:34;;;;;;;25.95;14.98;;;2.00;99.90;;;;;;4948584;28;87613;-76
2023/11/30 00:36:00;;;;;;;29.40;14.35;;;2.00;99.90;;;;;;4931393;28;90958;-76
2023/11/30 00:38:26;;;;;;;27.10;15.10;;;2.10;99.90;;;;;;4930585;28;91166;-76
2023/11/30 00:40:52;;;;;;;27.38;15.00;;;2.00;99.90;;;;;;4946672;28;87612;-76
2023/11/30 00:43:17;;;;;;;24.92;13.80;;;2.00;99.90;;;;;;4929918;28;87474;-76
2023/11/30 00:45:43;;;;;;;24.42;13.50;;;2.10;99.90;;;;;;4929027;28;90682;-76
2023/11/30 00:48:09;;;;;;;23.15;13.40;;;2.10;99.90;;;;;;4947862;28;87962;-77
2023/11/30 00:50:35;;;;;;;24.02;13.32;;;2.10;99.90;;;;;;4930250;28;90631;-77
2023/11/30 00:53:01;;;;;;;22.85;13.07;;;2.10;99.90;;;;;;4928587;28;88610;-76
2023/11/30 00:55:27;;;;;;;24.30;13.35;;;2.10;99.90;;;;;;4946845;28;87740;-76
2023/11/30 00:57:52;;;;;;;26.23;14.27;;;2.10;99.90;;;;;;4929288;28;92020;-76
2023/11/30 01:00:18;;;;;;;22.42;12.57;;;2.10;99.90;;;;;;4928661;28;91635;-76
2023/11/30 01:02:44;;;;;;;27.95;13.65;;;2.10;99.90;;;;;;4930022;28;87358;-76
2023/11/30 01:05:09;;;;;;;25.65;14.48;;;2.10;99.90;;;;;;4930055;28;91104;-76
2023/11/30 01:07:38;;;;;;;25.30;13.48;;;2.10;99.90;;;;;;4924190;28;91804;-76
2023/11/30 01:10:04;;;;;;;24.88;13.55;;;2.10;99.90;;;;;;4941812;28;88447;-76
2023/11/30 01:12:30;;;;;;;23.85;12.85;;;2.10;99.90;;;;;;4921540;28;87666;-76
2023/11/30 01:14:56;;;;;;;27.88;13.60;;;2.10;99.90;;;;;;4931026;28;91235;-76
2023/11/30 01:17:22;;;;;;;23.77;13.45;;;2.10;99.90;;;;;;4922503;28;92655;-76
2023/11/30 01:19:48;;;;;;;24.75;13.07;;;2.10;99.90;;;;;;4922514;28;92635;-76
2023/11/30 01:22:14;;;;;;;22.55;13.13;;;2.10;99.90;;;;;;4924685;28;87738;-76
2023/11/30 01:24:40;;;;;;;24.30;13.48;;;2.10;99.90;;;;;;4931540;28;89233;-76
2023/11/30 01:27:06;;;;;;;23.95;13.38;;;2.10;99.90;;;;;;4922452;28;91382;-76
2023/11/30 01:29:32;;;;;;;23.85;12.65;;;2.10;99.90;;;;;;4925488;28;90576;-76
2023/11/30 01:31:57;;;;;;;23.58;13.93;;;2.10;99.90;;;;;;4924082;28;87686;-76
2023/11/30 01:34:23;;;;;;;25.52;13.00;;;2.10;99.90;;;;;;4925109;28;90504;-76
2023/11/30 01:36:49;;;;;;;19.13;11.88;;;2.10;99.90;;;;;;4923958;28;91916;-76
2023/11/30 01:39:15;;;;;;;22.25;12.40;;;2.10;99.90;;;;;;4922504;28;91222;-76
2023/11/30 01:41:44;;;;;;;24.92;13.00;;;2.20;99.90;;;;;;4937884;28;88763;-76
2023/11/30 01:44:10;;;;;;;25.50;12.93;;;2.20;99.90;;;;;;4924002;28;91218;-76
2023/11/30 01:46:39;;;;;;;27.77;13.95;;;2.10;99.90;;;;;;4938893;28;88530;-76
2023/11/30 01:49:07;;;;;;;26.33;13.85;;;2.10;99.90;;;;;;4923780;28;91487;-76
2023/11/30 01:51:35;;;;;;;28.65;14.18;;;2.10;99.90;;;;;;4940191;28;87609;-76
2023/11/30 01:54:03;;;;;;;27.27;14.70;;;2.10;99.90;;;;;;4922632;28;89764;-76
2023/11/30 01:56:30;;;;;;;27.05;13.77;;;2.10;99.90;;;;;;4922787;28;91925;-76
2023/11/30 01:58:56;;;;;;;24.02;13.73;;;2.10;99.90;;;;;;4922565;28;92318;-76
2023/11/30 02:01:25;;;;;;;24.42;13.23;;;2.10;99.90;;;;;;4922638;28;87743;-76
2023/11/30 02:03:51;;;;;;;25.20;13.43;;;2.20;99.90;;;;;;4924161;28;90523;-76
2023/11/30 02:06:18;;;;;;;27.35;13.65;;;2.20;99.90;;;;;;4922802;28;93051;-76
2023/11/30 02:08:45;;;;;;;26.23;14.23;;;2.20;99.90;;;;;;4941342;28;89334;-76
2023/11/30 02:11:11;;;;;;;28.45;13.55;;;2.20;99.90;;;;;;4941721;28;87548;-76
2023/11/30 02:13:36;;;;;;;24.98;13.48;;;2.20;99.90;;;;;;4922005;28;90521;-76
2023/11/30 02:16:02;;;;;;;26.60;13.88;;;2.20;99.90;;;;;;4925282;28;91817;-76
2023/11/30 02:18:28;;;;;;;31.38;13.40;;;2.20;99.90;;;;;;4925621;28;92061;-76
2023/11/30 02:20:53;;;;;;;23.58;12.73;;;2.20;99.90;;;;;;4928912;28;87598;-76
2023/11/30 02:23:19;;;;;;;25.50;12.30;;;2.30;99.90;;;;;;4927893;28;90367;-77
2023/11/30 02:25:45;;;;;;;22.33;12.55;;;2.30;99.90;;;;;;4929031;28;91530;-76
2023/11/30 02:28:18;;;;;;;28.40;13.82;;;2.30;99.90;;;;;;4927157;28;91749;-76
2023/11/30 02:30:49;;;;;;;26.13;13.23;;;2.40;99.90;;;;;;4927681;28;88696;-76
2023/11/30 02:33:15;;;;;;;23.50;12.50;;;2.40;99.90;;;;;;4928872;28;91766;-77
2023/11/30 02:35:41;;;;;;;21.38;12.40;;;2.40;99.90;;;;;;4927683;28;91913;-76
2023/11/30 02:38:06;;;;;;;22.58;12.43;;;2.40;99.90;;;;;;4926059;28;91098;-76
2023/11/30 02:40:32;;;;;;;25.52;13.02;;;2.40;99.90;;;;;;4927727;28;87548;-76
2023/11/30 02:42:57;;;;;;;22.52;12.63;;;2.40;99.90;;;;;;4945759;28;87919;-76
2023/11/30 02:45:23;;;;;;;20.63;12.15;;;2.40;99.90;;;;;;4929710;28;91957;-76
2023/11/30 02:47:49;;;;;;;22.90;11.85;;;2.40;99.90;;;;;;4931946;28;90943;-76
2023/11/30 02:50:14;;;;;;;22.63;13.18;;;2.40;99.90;;;;;;4931026;28;87615;-76
2023/11/30 02:52:40;;;;;;;24.98;13.13;;;2.40;99.90;;;;;;4932534;28;90787;-76
2023/11/30 02:55:06;;;;;;;26.30;15.07;;;2.50;99.90;;;;;;4931703;28;92447;-76
2023/11/30 02:57:32;;;;;;;23.25;13.00;;;2.50;99.90;;;;;;4930718;28;94069;-76
2023/11/30 02:59:57;;;;;;;21.02;12.70;;;2.50;99.90;;;;;;4930696;28;87699;-76
2023/11/30 03:02:23;;;;;;;21.52;12.05;;;2.50;99.90;;;;;;4949042;28;87463;-76
2023/11/30 03:04:48;;;;;;;30.17;14.35;;;2.50;99.90;;;;;;4930091;28;90617;-76
2023/11/30 03:07:14;;;;;;;29.23;14.05;;;2.50;99.90;;;;;;4949457;28;88531;-76
2023/11/30 03:09:40;;;;;;;32.72;15.18;;;2.50;99.90;;;;;;4932793;28;87805;-76
2023/11/30 03:12:06;;;;;;;26.50;13.65;;;2.50;99.90;;;;;;4929989;28;91395;-77
2023/11/30 03:14:31;;;;;;;22.52;13.48;;;2.50;99.90;;;;;;4948522;28;91668;-76
2023/11/30 03:16:57;;;;;;;25.05;13.40;;;2.50;99.90;;;;;;4932550;28;90456;-76
2023/11/30 03:19:23;;;;;;;26.02;13.98;;;2.50;99.90;;;;;;4930940;28;88608;-76
2023/11/30 03:21:52;;;;;;;21.98;12.50;;;2.60;99.90;;;;;;4931388;28;89801;-76
2023/11/30 03:24:23;;;;;;;23.50;13.13;;;2.60;99.90;;;;;;4948085;28;89269;-76
2023/11/30 03:26:48;;;;;;;23.95;13.80;;;2.60;99.90;;;;;;4930367;28;91797;-76
2023/11/30 03:29:14;;;;;;;29.48;14.05;;;2.60;99.90;;;;;;4931948;28;87891;-76
2023/11/30 03:31:40;;;;;;;25.65;13.27;;;2.60;99.90;;;;;;4947690;28;87731;-76
2023/11/30 03:34:05;;;;;;;21.40;11.93;;;2.60;99.90;;;;;;4931532;28;91736;-76
2023/11/30 03:36:31;;;;;;;20.00;12.48;;;2.60;99.90;;;;;;4931086;28;91560;-77
2023/11/30 03:38:56;;;;;;;21.83;12.63;;;2.60;99.90;;;;;;4930957;28;87790;-77
2023/11/30 03:41:23;;;;;;;23.98;13.00;;;2.60;99.90;;;;;;4931205;28;90728;-77
2023/11/30 03:43:48;;;;;;;22.33;11.85;;;2.60;99.90;;;;;;4930844;28;91764;-76
2023/11/30 03:46:14;;;;;;;23.95;13.65;;;2.60;99.90;;;;;;4931351;28;92308;-76
2023/11/30 03:48:40;;;;;;;22.92;12.75;;;2.60;99.90;;;;;;4932096;28;87450;-76
2023/11/30 03:51:06;;;;;;;23.08;13.25;;;2.70;99.90;;;;;;4932009;28;90237;-77
2023/11/30 03:53:32;;;;;;;21.02;12.10;;;2.70;99.90;;;;;;4950282;28;90475;-76
2023/11/30 03:56:01;;;;;;;21.42;11.98;;;2.70;99.90;;;;;;4926487;28;91855;-76
2023/11/30 03:58:26;;;;;;;22.23;12.00;;;2.70;99.90;;;;;;4925265;28;87902;-76
2023/11/30 04:00:52;;;;;;;24.23;13.25;;;2.70;99.90;;;;;;4927052;28;90505;-76
2023/11/30 04:03:17;;;;;;;21.35;12.27;;;2.70;99.90;;;;;;4925066;28;90968;-77
2023/11/30 04:05:43;;;;;;;20.02;11.05;;;2.80;99.90;;;;;;4949796;28;88014;-76
2023/11/30 04:08:09;;;;;;;23.15;11.60;;;2.80;99.90;;;;;;4928647;28;88747;-76
2023/11/30 04:10:34;;;;;;;20.08;11.20;;;2.80;99.90;;;;;;4947766;28;87861;-76
2023/11/30 04:13:00;;;;;;;22.95;12.60;;;2.90;99.90;;;;;;4930107;28;91474;-76
2023/11/30 04:15:26;;;;;;;24.13;12.73;;;2.80;99.90;;;;;;4930341;28;88568;-76
2023/11/30 04:17:51;;;;;;;21.27;12.70;;;2.80;99.90;;;;;;4930635;28;87755;-76
2023/11/30 04:20:17;;;;;;;22.13;13.20;;;2.80;99.90;;;;;;4928994;28;89240;-76
2023/11/30 04:22:43;;;;;;;21.63;12.35;;;2.80;99.90;;;;;;4930264;28;91474;-76
2023/11/30 04:25:09;;;;;;;21.00;12.95;;;2.80;99.90;;;;;;4948651;28;87556;-76
2023/11/30 04:27:35;;;;;;;23.83;12.85;;;2.80;99.90;;;;;;4929863;28;87593;-76
2023/11/30 04:30:01;;;;;;;21.95;11.85;;;2.90;99.90;;;;;;4930264;28;90794;-76
2023/11/30 04:32:26;;;;;;;22.83;12.60;;;2.90;99.90;;;;;;4932442;28;91760;-77
2023/11/30 04:34:52;;;;;;;22.08;12.23;;;2.90;99.90;;;;;;4932022;28;92690;-77
2023/11/30 04:37:17;;;;;;;23.38;12.95;;;2.90;99.90;;;;;;4948172;28;87296;-76
2023/11/30 04:39:43;;;;;;;19.25;11.45;;;2.90;99.90;;;;;;4930401;28;91005;-76
2023/11/30 04:42:09;;;;;;;20.23;11.98;;;2.90;99.90;;;;;;4929865;28;91017;-76
2023/11/30 04:44:34;;;;;;;20.27;11.95;;;2.90;99.90;;;;;;4929817;28;91359;-77
2023/11/30 04:47:00;;;;;;;19.75;11.20;;;2.90;99.90;;;;;;4929132;28;87727;-76
2023/11/30 04:49:26;;;;;;;22.08;12.20;;;2.90;99.90;;;;;;4929885;28;89636;-77
2023/11/30 04:51:51;;;;;;;18.33;11.27;;;2.90;99.90;;;;;;4930661;28;91963;-76
2023/11/30 04:54:17;;;;;;;23.40;12.65;;;3.00;99.90;;;;;;4928663;28;90171;-76
2023/11/30 04:56:42;;;;;;;19.40;10.93;;;3.00;99.90;;;;;;4930252;28;88723;-76
2023/11/30 04:59:08;;;;;;;18.90;10.48;;;2.90;99.90;;;;;;4930709;28;90790;-76
2023/11/30 05:01:33;;;;;;;18.77;11.73;;;3.00;99.90;;;;;;4930043;28;91410;-76
2023/11/30 05:03:59;;;;;;;18.98;10.57;;;3.00;99.90;;;;;;4929662;28;91505;-76
2023/11/30 05:06:25;;;;;;;21.10;11.07;;;3.00;99.90;;;;;;4928110;28;87601;-76
2023/11/30 05:08:50;;;;;;;22.20;12.65;;;3.00;99.90;;;;;;4928945;28;91112;-76
2023/11/30 05:11:16;;;;;;;23.98;11.85;;;3.00;99.90;;;;;;4929091;28;91834;-76
2023/11/30 05:13:42;;;;;;;20.92;11.98;;;3.00;99.90;;;;;;4925885;28;91748;-76
2023/11/30 05:16:08;;;;;;;21.77;11.60;;;3.00;99.90;;;;;;4929597;28;88050;-76
2023/11/30 05:18:33;;;;;;;20.27;11.05;;;3.00;99.90;;;;;;4928871;28;92207;-77
2023/11/30 05:20:59;;;;;;;19.75;10.75;;;3.00;99.90;;;;;;4928165;28;92804;-76
2023/11/30 05:23:25;;;;;;;19.40;10.50;;;3.00;99.90;;;;;;4946643;28;89444;-76
2023/11/30 05:25:51;;;;;;;20.95;11.02;;;3.00;99.90;;;;;;4928012;28;88016;-77
2023/11/30 05:28:17;;;;;;;18.65;10.55;;;2.90;99.90;;;;;;4926751;28;89154;-77
2023/11/30 05:30:42;;;;;;;19.38;10.75;;;3.00;99.90;;;;;;4928214;28;91561;-76
2023/11/30 05:33:08;;;;;;;16.85;9.45;;;3.00;99.90;;;;;;4931310;28;91367;-76
2023/11/30 05:35:35;;;;;;;18.40;9.77;;;3.00;99.90;;;;;;4947262;28;87595;-77
2023/11/30 05:38:01;;;;;;;19.23;10.63;;;3.00;99.90;;;;;;4928983;28;90594;-76
2023/11/30 05:40:26;;;;;;;18.63;10.52;;;3.00;99.90;;;;;;4930997;28;90426;-76
2023/11/30 05:42:52;;;;;;;18.33;11.13;;;3.00;99.90;;;;;;4929576;28;91818;-76
2023/11/30 05:45:18;;;;;;;16.33;10.02;;;3.10;99.90;;;;;;4929803;28;88412;-76
2023/11/30 05:47:43;;;;;;;16.20;9.65;;;3.10;99.90;;;;;;4947132;28;87755;-77
2023/11/30 05:50:09;;;;;;;17.10;10.38;;;3.10;99.90;;;;;;4929449;28;91899;-76
2023/11/30 05:52:35;;;;;;;17.52;10.23;;;3.10;99.90;;;;;;4930228;28;91528;-76
2023/11/30 05:55:03;;;;;;;15.95;9.18;;;3.10;99.90;;;;;;4947373;28;89002;-76
2023/11/30 05:57:29;;;;;;;16.45;9.88;;;3.10;99.90;;;;;;4930315;28;91151;-76
2023/11/30 05:59:54;;;;;;;23.52;10.15;;;3.10;99.90;;;;;;4930739;28;90516;-76
2023/11/30 06:02:22;;;;;;;17.65;9.85;;;3.10;99.90;;;;;;4948730;28;87874;-77
2023/11/30 06:04:55;;;;;;;20.65;10.63;;;3.10;99.90;;;;;;4930328;28;88059;-76
2023/11/30 06:07:21;;;;;;;18.52;10.55;;;3.10;99.90;;;;;;4938097;28;91408;-76
2023/11/30 06:09:47;;;;;;;17.73;10.13;;;3.10;99.90;;;;;;4929189;28;92661;-76
2023/11/30 06:12:13;;;;;;;21.42;11.20;;;3.10;99.90;;;;;;4929763;28;91677;-76
2023/11/30 06:14:38;;;;;;;15.73;9.13;;;3.10;99.90;;;;;;4931301;28;87711;-76
2023/11/30 06:17:04;;;;;;;17.17;9.52;;;3.10;99.90;;;;;;4947387;28;87373;-76
2023/11/30 06:19:30;;;;;;;17.50;9.63;;;3.10;99.90;;;;;;4928936;28;92094;-77
2023/11/30 06:21:56;;;;;;;17.75;10.52;;;3.20;99.90;;;;;;4928314;28;91808;-77
2023/11/30 06:24:21;;;;;;;16.90;9.68;;;3.20;99.90;;;;;;4937718;28;87772;-77
2023/11/30 06:26:47;;;;;;;18.00;9.57;;;3.20;99.90;;;;;;4948009;28;87173;-77
2023/11/30 06:29:15;;;;;;;19.70;9.85;;;3.20;99.90;;;;;;4948428;28;88125;-77
2023/11/30 06:31:41;;;;;;;17.73;9.88;;;3.20;99.90;;;;;;4929089;28;91628;-78
2023/11/30 06:34:06;;;;;;;15.82;9.63;;;3.20;99.90;;;;;;4930089;28;88768;-77
2023/11/30 06:36:32;;;;;;;18.58;9.85;;;3.10;99.90;;;;;;4928678;28;91093;-77
2023/11/30 06:38:58;;;;;;;16.70;9.57;;;3.20;99.90;;;;;;4929473;28;91339;-77
2023/11/30 06:41:23;;;;;;;16.30;9.65;;;3.20;99.90;;;;;;4930021;28;91220;-77
2023/11/30 06:43:49;;;;;;;17.17;9.57;;;3.20;99.90;;;;;;4921274;28;87641;-77
2023/11/30 06:46:22;;;;;;;16.40;9.25;;;3.20;99.90;;;;;;4923189;28;90743;-77
2023/11/30 06:48:51;;;;;;;14.98;9.50;;;3.20;99.90;;;;;;4917916;28;91715;-77
2023/11/30 06:51:17;;;;;;;18.98;10.77;;;3.20;99.90;;;;;;4947472;28;88136;-78
2023/11/30 06:53:43;;;;;;;16.83;9.68;;;3.20;99.90;;;;;;4929695;28;87759;-77
2023/11/30 06:56:12;;;;;;;22.58;11.93;;;3.20;99.90;;;;;;4947893;28;87419;-77
2023/11/30 06:58:38;;;;;;;17.70;10.18;;;3.20;99.90;;;;;;4926920;28;93101;-77
2023/11/30 07:01:08;;;;;;;22.67;10.45;;;3.20;99.90;;;;;;4919044;28;92727;-77
2023/11/30 07:03:34;;;;;;;18.40;10.38;;;3.20;99.90;;;;;;4929091;28;87613;-77
2023/11/30 07:06:00;;;;;;;19.95;11.13;;;3.20;99.90;;;;;;4928074;28;90740;-78
2023/11/30 07:08:25;;;;;;;19.65;11.43;;;3.20;99.90;;;;;;4928084;28;91974;-77
2023/11/30 07:10:51;;;;;;;18.70;11.40;;;3.20;99.90;;;;;;4928272;28;91473;-77
2023/11/30 07:13:17;;;;;;;20.85;10.98;;;3.20;99.90;;;;;;4927363;28;87715;-77
2023/11/30 07:15:43;;;;;;;23.05;11.48;;;3.10;99.90;;;;;;4926737;28;89315;-78
2023/11/30 07:18:10;;;;;;;21.80;11.50;;;3.10;99.90;;;;;;4945784;28;88606;-77
2023/11/30 07:20:36;;;;;;;21.08;12.18;;;3.10;99.90;;;;;;4928825;28;91007;-77
2023/11/30 07:23:04;;;;;;;19.95;11.65;;;3.10;99.90;;;;;;4926210;28;88829;-77
2023/11/30 07:25:31;;;;;;;21.70;11.52;;;3.10;99.90;;;;;;4942900;28;88847;-77
2023/11/30 07:27:57;;;;;;;22.38;11.48;;;3.10;99.90;;;;;;4927521;28;90687;-77
2023/11/30 07:30:23;;;;;;;20.38;10.73;;;3.10;99.90;;;;;;4926808;28;91633;-77
2023/11/30 07:32:48;;;;;;;24.02;11.60;;;3.10;99.90;;;;;;4930744;28;87805;-77
2023/11/30 07:35:14;;;;;;;20.45;11.18;;;3.10;99.90;;;;;;4930697;28;90517;-77
2023/11/30 07:37:42;;;;;;;21.23;11.00;;;3.10;99.90;;;;;;4930439;28;91720;-77
2023/11/30 07:40:08;;;;;;;19.85;11.05;;;3.10;99.90;;;;;;4929937;28;91468;-77
2023/11/30 07:42:34;;;;;;;19.38;11.00;;;3.10;99.90;;;;;;4946360;28;87939;-77
2023/11/30 07:45:01;;;;;;;23.48;12.85;;;3.10;99.90;;;;;;4948468;28;87684;-77
2023/11/30 07:47:27;;;;;;;24.27;11.75;;;3.00;99.90;;;;;;4931328;28;93140;-77
2023/11/30 07:49:54;;;;;;;25.05;12.63;;;3.10;99.90;;;;;;4928970;28;92522;-77
2023/11/30 07:52:19;;;;;;;22.83;11.90;;;3.00;99.90;;;;;;4929012;28;87609;-77
2023/11/30 07:54:46;;;;;;;19.95;12.07;;;3.00;99.90;;;;;;4947167;28;87679;-77
2023/11/30 07:57:11;;;;;;;21.45;11.98;;;3.00;99.90;;;;;;4945928;28;91649;-77
2023/11/30 07:59:37;;;;;;;22.05;12.45;;;3.00;99.90;;;;;;4947262;28;88034;-77
2023/11/30 08:02:04;;;;;;;21.23;12.30;;;3.00;99.90;;;;;;4930654;28;88318;-79
2023/11/30 08:04:29;;;;;;;22.25;12.13;;;3.00;99.90;;;;;;4929326;28;90758;-76
2023/11/30 08:06:55;;;;;;;23.33;12.52;;;3.10;99.90;;;;;;4928603;28;91316;-76
2023/11/30 08:09:21;;;;;;;27.50;12.75;;;3.00;99.90;;;;;;4928774;28;90886;-76
2023/11/30 08:11:48;;;;;;;21.95;11.95;;;3.10;99.90;;;;;;4928869;28;88681;-76
2023/11/30 08:14:14;;;;;;;21.58;12.05;;;3.10;99.90;;;;;;4930496;28;90559;-76
2023/11/30 08:16:39;;;;;;;22.52;12.07;;;3.10;99.90;;;;;;4928853;28;90126;-76
2023/11/30 08:19:05;;;;;;;22.13;12.27;;;3.20;99.90;;;;;;4945726;28;87669;-76
2023/11/30 08:21:31;;;;;;;22.33;12.68;;;3.20;99.90;;;;;;4929505;28;87411;-76
2023/11/30 08:23:57;;;;;;;21.52;12.07;;;3.10;99.90;;;;;;4928286;28;89519;-76
2023/11/30 08:26:22;;;;;;;24.10;12.55;;;3.20;99.90;;;;;;4930285;28;90753;-76
2023/11/30 08:28:50;;;;;;;21.95;12.30;;;3.20;99.90;;;;;;4928694;28;92171;-76
2023/11/30 08:31:16;;;;;;;22.58;12.18;;;3.20;99.90;;;;;;4947207;28;87686;-76
2023/11/30 08:33:41;;;;;;;21.02;12.65;;;3.20;99.90;;;;;;4927664;28;89813;-76
2023/11/30 08:36:08;;;;;;;22.40;12.65;;;3.20;99.90;;;;;;4941252;28;89335;-76
2023/11/30 08:38:36;;;;;;;25.10;12.15;;;3.20;99.90;;;;;;4936897;28;93010;-76
2023/11/30 08:41:02;;;;;;;23.77;12.75;;;3.30;99.90;;;;;;4929269;28;96111;-77
2023/11/30 08:43:28;;;;;;;24.90;13.43;;;3.30;99.90;;;;;;4928087;28;90502;-76
2023/11/30 08:45:54;;;;;;;24.13;12.27;;;3.40;99.90;;;;;;4929882;28;91609;-79
2023/11/30 08:48:20;;;;;;;22.75;12.82;;;3.40;99.90;;;;;;4929662;28;91632;-77
2023/11/30 08:50:47;;;;;;;23.60;13.38;;;3.50;99.90;;;;;;4930106;28;87938;-77
2023/11/30 08:53:16;;;;;;;24.75;13.10;;;3.60;99.90;;;;;;4947651;28;90495;-79
2023/11/30 08:55:46;;;;;;;22.35;12.93;;;3.70;99.90;;;;;;4926935;28;89074;-77
2023/11/30 08:58:12;;;;;;;23.35;13.10;;;3.70;99.90;;;;;;4945800;28;89042;-77
2023/11/30 09:00:42;;;;;;;24.27;12.95;;;3.80;99.90;;;;;;4943107;28;88819;-76
2023/11/30 09:03:08;;;;;;;23.95;13.10;;;3.90;99.90;;;;;;4927409;28;91364;-77
2023/11/30 09:05:33;;;;;;;30.40;13.73;;;3.90;99.90;;;;;;4944216;28;89122;-77
2023/11/30 09:07:59;;;;;;;31.38;14.98;;;4.00;99.90;;;;;;4929606;28;90659;-77
2023/11/30 09:10:25;;;;;;;24.90;14.02;;;4.10;99.90;;;;;;4928864;28;87743;-77
2023/11/30 09:12:52;;;;;;;24.58;12.95;;;4.10;99.90;;;;;;4929624;28;95014;-76
2023/11/30 09:15:21;;;;;;;24.52;14.10;;;4.20;99.90;;;;;;4921727;28;91025;-78
2023/11/30 09:17:46;;;;;;;24.42;13.48;;;4.20;99.90;;;;;;4928699;28;91175;-77
2023/11/30 09:20:12;;;;;;;26.52;13.75;;;4.20;99.90;;;;;;4930843;28;87816;-77
2023/11/30 09:22:38;;;;;;;24.10;13.60;;;4.30;99.90;;;;;;4929946;28;90624;-77
2023/11/30 09:25:04;;;;;;;26.73;14.05;;;4.40;99.90;;;;;;4943465;28;89924;-78
2023/11/30 09:27:30;;;;;;;27.13;14.65;;;4.40;99.90;;;;;;4941519;28;89488;-77
2023/11/30 09:29:56;;;;;;;23.55;13.35;;;4.50;99.90;;;;;;4925249;28;87544;-77
2023/11/30 09:32:22;;;;;;;26.55;14.35;;;4.50;99.90;;;;;;4918021;28;91278;-77
2023/11/30 09:34:51;;;;;;;26.27;14.65;;;4.60;99.90;;;;;;4916668;28;91601;-77
2023/11/30 09:37:17;;;;;;;25.40;13.50;;;4.70;99.90;;;;;;4931762;28;87719;-77
2023/11/30 09:39:44;;;;;;;26.30;14.13;;;4.70;99.90;;;;;;4931540;28;88037;-76
2023/11/30 09:42:15;;;;;;;29.25;14.70;;;4.80;99.90;;;;;;4915533;28;90784;-76
2023/11/30 09:44:44;;;;;;;29.05;14.40;;;4.90;99.90;;;;;;4912998;28;91937;-77
2023/11/30 09:47:10;;;;;;;27.27;15.30;;;5.00;99.90;;;;;;4931925;28;89030;-77
2023/11/30 09:49:37;;;;;;;26.20;14.02;;;5.10;99.90;;;;;;4913751;28;88936;-77
2023/11/30 09:52:03;;;;;;;25.45;14.90;;;5.20;99.90;;;;;;4914242;28;90737;-77
2023/11/30 09:54:29;;;;;;;26.23;15.05;;;5.30;99.90;;;;;;4932802;28;89013;-77
2023/11/30 09:56:55;;;;;;;28.92;15.13;;;5.40;99.90;;;;;;4916548;28;91362;-77
2023/11/30 09:59:20;;;;;;;25.58;14.80;;;5.50;99.90;;;;;;4916655;28;88443;-77
2023/11/30 10:01:48;;;;;;;27.63;14.73;;;5.70;99.90;;;;;;4931771;28;87597;-77
2023/11/30 10:04:15;;;;;;;28.17;14.80;;;5.80;99.90;;;;;;4914609;28;91675;-77
2023/11/30 10:06:41;;;;;;;29.33;15.93;;;5.80;99.90;;;;;;4914337;28;91872;-77
2023/11/30 10:09:13;;;;;;;28.55;15.40;;;6.00;99.90;;;;;;4919305;28;87960;-77
2023/11/30 10:11:40;;;;;;;47.08;24.85;;;6.20;99.90;;;;;;4917502;28;89656;-77
2023/11/30 10:14:06;;;;;;;31.27;16.92;;;6.30;99.90;;;;;;4914795;28;92782;-77
2023/11/30 10:16:33;;;;;;;26.05;14.15;;;6.50;99.90;;;;;;4931134;28;89122;-77
2023/11/30 10:18:59;;;;;;;33.25;15.50;;;6.70;99.90;;;;;;4912993;28;87899;-77
2023/11/30 10:21:24;;;;;;;20.90;12.98;;;6.80;99.90;;;;;;4917123;28;91062;-77
2023/11/30 10:23:50;;;;;;;23.70;13.15;;;7.00;99.90;;;;;;4933033;28;88599;-77
2023/11/30 10:26:17;;;;;;;26.30;13.45;;;7.10;99.90;;;;;;4915870;28;91275;-77
2023/11/30 10:28:43;;;;;;;21.23;13.95;;;7.20;99.90;;;;;;4917237;28;87811;-77
2023/11/30 10:31:12;;;;;;;21.83;12.93;;;7.30;99.90;;;;;;4917630;28;90194;-77
2023/11/30 10:33:40;;;;;;;21.25;12.20;;;7.30;99.90;;;;;;4918142;28;91675;-77
2023/11/30 10:36:07;;;;;;;21.65;13.45;;;7.40;99.90;;;;;;4922559;28;91892;-77
2023/11/30 10:38:34;;;;;;;19.23;12.38;;;7.40;99.90;;;;;;4923483;28;88457;-77
2023/11/30 10:41:06;;;;;;;19.40;12.77;;;7.40;99.90;;;;;;4921038;28;89897;-77
2023/11/30 10:43:35;;;;;;;39.33;22.27;;;7.40;99.90;;;;;;4920065;28;92930;-77
2023/11/30 10:46:07;;;;;;;22.60;14.82;;;7.40;99.90;;;;;;4921925;28;91759;-77
2023/11/30 10:48:36;;;;;;;20.88;13.80;;;7.40;99.90;;;;;;4923842;28;89131;-77
2023/11/30 10:51:03;;;;;;;21.10;13.45;;;7.50;99.90;;;;;;4921217;28;90794;-77
2023/11/30 10:53:50;;;;;;;26.23;14.10;;;7.50;99.90;;;;;;4923400;28;91926;-77
2023/11/30 10:56:17;;;;;;;28.15;14.07;;;7.60;99.90;;;;;;4939129;28;96301;-77
2023/11/30 10:58:44;;;;;;;27.65;14.30;;;7.60;99.90;;;;;;4925070;28;87915;-78
2023/11/30 11:01:12;;;;;;;26.40;13.95;;;7.60;99.90;;;;;;4926768;28;90008;-77
2023/11/30 11:03:47;;;;;;;26.52;15.73;;;7.60;99.90;;;;;;4914049;28;93101;-77
2023/11/30 11:06:14;;;;;;;27.85;14.18;;;7.70;99.90;;;;;;4924950;28;92786;-77
2023/11/30 11:08:56;;;;;;;24.70;13.63;;;7.70;99.90;;;;;;4932797;28;87695;-77
2023/11/30 11:11:21;;;;;;;25.23;14.05;;;7.70;99.90;;;;;;4930885;28;94057;-78
2023/11/30 11:13:47;;;;;;;25.98;14.30;;;7.70;99.90;;;;;;4930212;28;92210;-77
2023/11/30 11:16:13;;;;;;;27.80;13.73;;;7.70;99.90;;;;;;4921655;28;90168;-78
2023/11/30 11:18:42;;;;;;;22.73;12.43;;;7.70;99.90;;;;;;4947000;28;87493;-78
2023/11/30 11:21:26;;;;;;;21.85;13.13;;;7.70;99.90;;;;;;4930456;28;91164;-77
2023/11/30 11:23:52;;;;;;;24.73;13.30;;;7.60;99.90;;;;;;4930555;28;92116;-77
2023/11/30 11:26:17;;;;;;;21.55;12.38;;;7.60;99.90;;;;;;4931037;28;90864;-78
2023/11/30 11:28:45;;;;;;;23.38;13.57;;;7.60;99.90;;;;;;4928309;28;88819;-77
2023/11/30 11:31:12;;;;;;;22.40;13.00;;;7.60;99.90;;;;;;4929747;28;91444;-78
2023/11/30 11:33:41;;;;;;;23.23;13.20;;;7.60;99.90;;;;;;4929860;28;91741;-78
2023/11/30 11:36:07;;;;;;;20.83;13.35;;;7.60;99.90;;;;;;4947251;28;88594;-80
2023/11/30 11:38:36;;;;;;;25.27;12.68;;;7.60;99.90;;;;;;4928799;28;87966;-79
2023/11/30 11:41:01;;;;;;;21.33;12.75;;;7.60;99.90;;;;;;4934513;28;88496;-77
2023/11/30 11:43:27;;;;;;;31.48;16.55;;;7.70;99.90;;;;;;4920574;28;91284;-77
2023/11/30 11:45:53;;;;;;;26.40;15.02;;;7.70;99.90;;;;;;4948683;28;88945;-77
2023/11/30 11:48:20;;;;;;;24.50;13.70;;;7.60;99.90;;;;;;4947232;28;87548;-78
2023/11/30 11:50:56;;;;;;;22.25;12.80;;;7.60;99.90;;;;;;4929946;28;90581;-78
2023/11/30 11:53:25;;;;;;;23.58;12.48;;;7.60;99.90;;;;;;4945786;28;94202;-80
2023/11/30 11:55:50;;;;;;;23.60;13.82;;;7.70;99.90;;;;;;4929829;28;91345;-77
2023/11/30 11:58:16;;;;;;;23.08;14.38;;;7.70;99.90;;;;;;4930830;28;87398;-77
2023/11/30 12:00:52;;;;;;;25.55;13.75;;;7.70;99.90;;;;;;4945615;28;87747;-78
2023/11/30 12:03:20;;;;;;;22.98;13.00;;;7.70;99.90;;;;;;4930379;28;92532;-79
2023/11/30 12:05:47;;;;;;;24.85;13.18;;;7.70;99.90;;;;;;4930069;28;91362;-78
2023/11/30 12:08:14;;;;;;;27.42;13.93;;;7.80;99.90;;;;;;4931841;28;90521;-78
2023/11/30 12:10:40;;;;;;;23.48;14.20;;;7.70;99.90;;;;;;4930680;28;89180;-77
2023/11/30 12:13:07;;;;;;;23.77;14.20;;;7.80;99.90;;;;;;4947417;28;87746;-77
2023/11/30 12:15:50;;;;;;;23.40;13.85;;;7.80;99.90;;;;;;4931160;28;89329;-79
2023/11/30 12:18:24;;;;;;;22.30;13.52;;;8.00;99.90;;;;;;4915454;28;88761;-79
2023/11/30 12:21:02;;;;;;;24.35;14.82;;;8.10;99.90;;;;;;4943768;28;87629;-81
2023/11/30 12:23:34;;;;;;;20.92;12.82;;;8.30;99.90;;;;;;4949122;28;92965;-78
2023/11/30 12:26:02;;;;;;;18.42;11.85;;;8.50;99.90;;;;;;4929298;28;91258;-78
2023/11/30 12:28:28;;;;;;;23.48;11.75;;;8.60;99.90;;;;;;4946605;28;87586;-78
2023/11/30 12:30:57;;;;;;;21.75;12.65;;;8.70;99.90;;;;;;4929978;28;89331;-80
2023/11/30 12:33:23;;;;;;;18.75;11.30;;;8.90;99.90;;;;;;4928175;28;92251;-77
2023/11/30 12:35:52;;;;;;;19.80;11.05;;;9.00;99.90;;;;;;4947674;28;87553;-77